Orca — SY2714 — position and weather

sailwx.info

Track history (hours):
 
Tides and Currents Weather Stations Pressure Air Temp Water Temp Dewpoint Dewpoint Depression Visibility Wind Speed Wind Dir Waves Ship Positions

Orca

Last reported at 2018-May-27 11:13 UTC. Time now 2018-May-28 01:38 UTC.
Position N 37°27' E 025°20'.

Length 43 m; draft 2.4 m.

Type: Passenger vessel. MMSI: 237594800.

Date/timePositionNaut miles runAvg speedWind from/ knotsBaromVisibWave heightAir tempDewpointWater temp
2018-May-27 11:13N 37°27' E 025°20'1 5.7
2018-May-27 11:01N 37°27' E 025°18'3 6.8
2018-May-27 10:30N 37°24' E 025°16'0 0.0
2018-May-27 10:00N 37°24' E 025°16'0 0.0
2018-May-27 09:31N 37°24' E 025°16'0 0.0
2018-May-27 09:00N 37°24' E 025°16'0 0.0
2018-May-27 08:30N 37°24' E 025°16'0 0.0
2018-May-27 08:01N 37°24' E 025°16'1 2.2
2018-May-27 07:31N 37°25' E 025°16'3 6.8
2018-May-27 07:00N 37°27' E 025°20'0 0.0
2018-May-26 11:14N 37°27' E 025°20'1 5.8
2018-May-26 11:01N 37°26' E 025°18'3 6.1
2018-May-26 10:31N 37°24' E 025°16'0 0.0
2018-May-26 10:01N 37°24' E 025°16'0 0.0
2018-May-26 09:28N 37°24' E 025°16'0 0.0
2018-May-26 09:01N 37°24' E 025°16'0 0.0
2018-May-26 08:31N 37°24' E 025°16'0 0.0
2018-May-26 08:00N 37°24' E 025°16'3 5.7
2018-May-26 07:30N 37°26' E 025°18'2 3.4
2018-May-26 07:00N 37°27' E 025°20'0 0.0
2018-May-25 11:14N 37°27' E 025°20'1 4.3
2018-May-25 10:59N 37°27' E 025°18'4 7.4
2018-May-25 10:30N 37°24' E 025°16'3 6.5
2018-May-25 10:01N 37°27' E 025°18'0 0.2
2018-May-25 09:31N 37°27' E 025°18'3 6.1
2018-May-25 09:00N 37°24' E 025°16'0 0.0
2018-May-25 08:31N 37°24' E 025°16'0 0.0
2018-May-25 08:01N 37°24' E 025°16'3 6.3
2018-May-25 07:30N 37°27' E 025°18'1 2.7
2018-May-25 07:01N 37°27' E 025°20'4 0.2
2018-May-24 09:00N 37°24' E 025°16'0 0.0
2018-May-24 08:30N 37°24' E 025°16'0 0.0
2018-May-24 08:00N 37°24' E 025°16'1 1.2
2018-May-24 07:30N 37°25' E 025°16'4 7.3
2018-May-24 06:59N 37°27' E 025°20'0 0.0
2018-May-24 06:29N 37°27' E 025°20'0 0.0
2018-May-23 11:06N 37°27' E 025°20'0 3.8
2018-May-23 11:01N 37°27' E 025°19'4 7.8
2018-May-23 10:30N 37°24' E 025°16'0 0.0
2018-May-23 10:00N 37°24' E 025°16'0 0.0
2018-May-23 09:31N 37°24' E 025°16'2 3.1
2018-May-23 09:00N 37°25' E 025°17'3 5.7
2018-May-23 08:31N 37°27' E 025°20'4 8.4
2018-May-23 08:00N 37°24' E 025°16'1 2.3
2018-May-23 07:30N 37°25' E 025°16'3 6.7
2018-May-23 07:00N 37°27' E 025°20'0 0.0
2018-May-23 06:31N 37°27' E 025°20'1 2.8
2018-May-23 06:01N 37°26' E 025°18'3 6.1
2018-May-23 05:31N 37°24' E 025°16'5 9.9
2018-May-23 05:00N 37°28' E 025°20'1 1.7
2018-May-23 04:29N 37°27' E 025°20'0 0.0
2018-May-22 11:07N 37°27' E 025°20'0 3.9
2018-May-22 11:00N 37°27' E 025°19'4 7.8
2018-May-22 10:31N 37°24' E 025°16'0 0.0
2018-May-22 10:01N 37°24' E 025°16'0 0.0
2018-May-22 09:31N 37°24' E 025°16'3 5.0
2018-May-22 09:00N 37°26' E 025°17'1 1.9
2018-May-22 08:28N 37°27' E 025°18'3 7.6
2018-May-22 08:00N 37°24' E 025°16'2 4.7
2018-May-22 07:31N 37°26' E 025°17'2 4.3
2018-May-22 07:00N 37°27' E 025°20'3 5.1
2018-May-22 06:30N 37°25' E 025°17'1 1.4
2018-May-22 06:00N 37°25' E 025°16'3 6.0
2018-May-22 05:29N 37°27' E 025°20'0 0.0
2018-May-22 05:00N 37°27' E 025°20'0 0.0
2018-May-21 11:09N 37°27' E 025°20'1 5.8
2018-May-21 10:58N 37°27' E 025°18'3 7.6
2018-May-21 10:30N 37°24' E 025°16'0 0.0
2018-May-21 10:00N 37°24' E 025°16'0 0.0
2018-May-21 09:30N 37°24' E 025°16'0 0.0
2018-May-21 08:41N 37°24' E 025°16'0 0.0
2018-May-21 08:29N 37°24' E 025°16'0 0.0
2018-May-21 08:00N 37°24' E 025°16'2 4.9
2018-May-21 07:29N 37°26' E 025°17'2 3.9
2018-May-21 06:57N 37°27' E 025°20'0 0.0
2018-May-21 06:30N 37°27' E 025°20'0 0.0
2018-May-20 11:07N 37°27' E 025°20'1 7.3
2018-May-20 11:00N 37°27' E 025°19'4 7.3
2018-May-20 10:30N 37°24' E 025°16'0 0.0
2018-May-20 10:01N 37°24' E 025°16'0 0.0
2018-May-20 09:30N 37°24' E 025°16'0 0.0
2018-May-20 09:01N 37°24' E 025°16'0 0.0
2018-May-20 08:31N 37°24' E 025°16'0 0.0
2018-May-20 08:01N 37°24' E 025°16'1 1.4
2018-May-20 07:31N 37°25' E 025°16'4 7.5
2018-May-20 07:00N 37°27' E 025°20'0 0.0
2018-May-19 13:04N 37°27' E 025°20'0 0.3
2018-May-19 13:01N 37°27' E 025°20'4 8.5
2018-May-19 12:31N 37°24' E 025°16'0 0.0
2018-May-19 12:01N 37°24' E 025°16'0 0.0
2018-May-19 11:31N 37°24' E 025°16'0 0.0
2018-May-19 11:01N 37°24' E 025°16'0 0.0
2018-May-19 10:30N 37°24' E 025°16'0 0.0
2018-May-19 10:00N 37°24' E 025°16'0 0.0
2018-May-19 09:31N 37°24' E 025°16'0 0.0
2018-May-19 09:00N 37°24' E 025°16'0 0.0
2018-May-19 08:30N 37°24' E 025°16'0 0.0
2018-May-19 08:00N 37°24' E 025°16'1 2.6
2018-May-19 07:30N 37°25' E 025°16'3 6.0
2018-May-19 07:00N 37°27' E 025°20'0 0.0
2018-May-18 11:04N 37°27' E 025°20'0 0.8
2018-May-18 11:01N 37°27' E 025°20'4 8.7
2018-May-18 10:31N 37°24' E 025°16'0 0.1
2018-May-18 10:00N 37°24' E 025°16'0 0.0
2018-May-18 09:30N 37°24' E 025°16'0 0.0
2018-May-18 09:00N 37°24' E 025°16'0 0.0
2018-May-18 08:31N 37°24' E 025°16'0 0.0
2018-May-18 08:00N 37°24' E 025°16'1 2.6
2018-May-18 07:31N 37°25' E 025°16'3 6.2
2018-May-18 07:00N 37°27' E 025°20'  
Track history (hours):
 
Tides and Currents Weather Stations Pressure Air Temp Water Temp Dewpoint Dewpoint Depression Visibility Wind Speed Wind Dir Waves Ship Positions

Orca

Last reported at 2018-May-27 11:13 UTC. Time now 2018-May-28 01:38 UTC.
Position N 37°27' E 025°20'.

Length 43 m; draft 2.4 m.

Type: Passenger vessel. MMSI: 237594800.

Date/timePositionNaut miles runAvg speedWind from/ knotsBaromVisibWave heightAir tempDewpointWater temp
2018-May-27 11:13N 37°27' E 025°20'1 5.7
2018-May-27 11:01N 37°27' E 025°18'3 6.8
2018-May-27 10:30N 37°24' E 025°16'0 0.0
2018-May-27 10:00N 37°24' E 025°16'0 0.0
2018-May-27 09:31N 37°24' E 025°16'0 0.0
2018-May-27 09:00N 37°24' E 025°16'0 0.0
2018-May-27 08:30N 37°24' E 025°16'0 0.0
2018-May-27 08:01N 37°24' E 025°16'1 2.2
2018-May-27 07:31N 37°25' E 025°16'3 6.8
2018-May-27 07:00N 37°27' E 025°20'0 0.0
2018-May-26 11:14N 37°27' E 025°20'1 5.8
2018-May-26 11:01N 37°26' E 025°18'3 6.1
2018-May-26 10:31N 37°24' E 025°16'0 0.0
2018-May-26 10:01N 37°24' E 025°16'0 0.0
2018-May-26 09:28N 37°24' E 025°16'0 0.0
2018-May-26 09:01N 37°24' E 025°16'0 0.0
2018-May-26 08:31N 37°24' E 025°16'0 0.0
2018-May-26 08:00N 37°24' E 025°16'3 5.7
2018-May-26 07:30N 37°26' E 025°18'2 3.4
2018-May-26 07:00N 37°27' E 025°20'0 0.0
2018-May-25 11:14N 37°27' E 025°20'1 4.3
2018-May-25 10:59N 37°27' E 025°18'4 7.4
2018-May-25 10:30N 37°24' E 025°16'3 6.5
2018-May-25 10:01N 37°27' E 025°18'0 0.2
2018-May-25 09:31N 37°27' E 025°18'3 6.1
2018-May-25 09:00N 37°24' E 025°16'0 0.0
2018-May-25 08:31N 37°24' E 025°16'0 0.0
2018-May-25 08:01N 37°24' E 025°16'3 6.3
2018-May-25 07:30N 37°27' E 025°18'1 2.7
2018-May-25 07:01N 37°27' E 025°20'4 0.2
2018-May-24 09:00N 37°24' E 025°16'0 0.0
2018-May-24 08:30N 37°24' E 025°16'0 0.0
2018-May-24 08:00N 37°24' E 025°16'1 1.2
2018-May-24 07:30N 37°25' E 025°16'4 7.3
2018-May-24 06:59N 37°27' E 025°20'0 0.0
2018-May-24 06:29N 37°27' E 025°20'0 0.0
2018-May-23 11:06N 37°27' E 025°20'0 3.8
2018-May-23 11:01N 37°27' E 025°19'4 7.8
2018-May-23 10:30N 37°24' E 025°16'0 0.0
2018-May-23 10:00N 37°24' E 025°16'0 0.0
2018-May-23 09:31N 37°24' E 025°16'2 3.1
2018-May-23 09:00N 37°25' E 025°17'3 5.7
2018-May-23 08:31N 37°27' E 025°20'4 8.4
2018-May-23 08:00N 37°24' E 025°16'1 2.3
2018-May-23 07:30N 37°25' E 025°16'3 6.7
2018-May-23 07:00N 37°27' E 025°20'0 0.0
2018-May-23 06:31N 37°27' E 025°20'1 2.8
2018-May-23 06:01N 37°26' E 025°18'3 6.1
2018-May-23 05:31N 37°24' E 025°16'5 9.9
2018-May-23 05:00N 37°28' E 025°20'1 1.7
2018-May-23 04:29N 37°27' E 025°20'0 0.0
2018-May-22 11:07N 37°27' E 025°20'0 3.9
2018-May-22 11:00N 37°27' E 025°19'4 7.8
2018-May-22 10:31N 37°24' E 025°16'0 0.0
2018-May-22 10:01N 37°24' E 025°16'0 0.0
2018-May-22 09:31N 37°24' E 025°16'3 5.0
2018-May-22 09:00N 37°26' E 025°17'1 1.9
2018-May-22 08:28N 37°27' E 025°18'3 7.6
2018-May-22 08:00N 37°24' E 025°16'2 4.7
2018-May-22 07:31N 37°26' E 025°17'2 4.3
2018-May-22 07:00N 37°27' E 025°20'3 5.1
2018-May-22 06:30N 37°25' E 025°17'1 1.4
2018-May-22 06:00N 37°25' E 025°16'3 6.0
2018-May-22 05:29N 37°27' E 025°20'0 0.0
2018-May-22 05:00N 37°27' E 025°20'0 0.0
2018-May-21 11:09N 37°27' E 025°20'1 5.8
2018-May-21 10:58N 37°27' E 025°18'3 7.6
2018-May-21 10:30N 37°24' E 025°16'0 0.0
2018-May-21 10:00N 37°24' E 025°16'0 0.0
2018-May-21 09:30N 37°24' E 025°16'0 0.0
2018-May-21 08:41N 37°24' E 025°16'0 0.0
2018-May-21 08:29N 37°24' E 025°16'0 0.0
2018-May-21 08:00N 37°24' E 025°16'2 4.9
2018-May-21 07:29N 37°26' E 025°17'2 3.9
2018-May-21 06:57N 37°27' E 025°20'0 0.0
2018-May-21 06:30N 37°27' E 025°20'0 0.0
2018-May-20 11:07N 37°27' E 025°20'1 7.3
2018-May-20 11:00N 37°27' E 025°19'4 7.3
2018-May-20 10:30N 37°24' E 025°16'0 0.0
2018-May-20 10:01N 37°24' E 025°16'0 0.0
2018-May-20 09:30N 37°24' E 025°16'0 0.0
2018-May-20 09:01N 37°24' E 025°16'0 0.0
2018-May-20 08:31N 37°24' E 025°16'0 0.0
2018-May-20 08:01N 37°24' E 025°16'1 1.4
2018-May-20 07:31N 37°25' E 025°16'4 7.5
2018-May-20 07:00N 37°27' E 025°20'0 0.0
2018-May-19 13:04N 37°27' E 025°20'0 0.3
2018-May-19 13:01N 37°27' E 025°20'4 8.5
2018-May-19 12:31N 37°24' E 025°16'0 0.0
2018-May-19 12:01N 37°24' E 025°16'0 0.0
2018-May-19 11:31N 37°24' E 025°16'0 0.0
2018-May-19 11:01N 37°24' E 025°16'0 0.0
2018-May-19 10:30N 37°24' E 025°16'0 0.0
2018-May-19 10:00N 37°24' E 025°16'0 0.0
2018-May-19 09:31N 37°24' E 025°16'0 0.0
2018-May-19 09:00N 37°24' E 025°16'0 0.0
2018-May-19 08:30N 37°24' E 025°16'0 0.0
2018-May-19 08:00N 37°24' E 025°16'1 2.6
2018-May-19 07:30N 37°25' E 025°16'3 6.0
2018-May-19 07:00N 37°27' E 025°20'0 0.0
2018-May-18 11:04N 37°27' E 025°20'0 0.8
2018-May-18 11:01N 37°27' E 025°20'4 8.7
2018-May-18 10:31N 37°24' E 025°16'0 0.1
2018-May-18 10:00N 37°24' E 025°16'0 0.0
2018-May-18 09:30N 37°24' E 025°16'0 0.0
2018-May-18 09:00N 37°24' E 025°16'0 0.0
2018-May-18 08:31N 37°24' E 025°16'0 0.0
2018-May-18 08:00N 37°24' E 025°16'1 2.6
2018-May-18 07:31N 37°25' E 025°16'3 6.2
2018-May-18 07:00N 37°27' E 025°20'  

Dump ship's entire track history